Terminal Aerodrome Forecast
Issued by NWS

Home | Current Version | Previous Version | Text Only | Print | Product List | Glossary On
Versions: 1 2 3 4 5 6 7 8 9 10 11 12
765
FTUS41 KPHI 261727
TAFMIV
TAF
KMIV 261727Z 2618/2718 30011KT P6SM FEW040
     FM262300 VRB03KT P6SM SKC
     FM271400 07007KT P6SM FEW250=

USA.gov is the U.S. government's official web portal to all federal, state and local government web resources and services.